sensor_id;sensor_type;location;lat;lon;timestamp;temperature;humidity
9157;DHT22;4613;48.392;9.998;2022-11-15T00:01:23;8.00;99.90
9157;DHT22;4613;48.392;9.998;2022-11-15T00:04:31;8.10;99.90
9157;DHT22;4613;48.392;9.998;2022-11-15T00:07:40;8.10;99.90
9157;DHT22;4613;48.392;9.998;2022-11-15T00:10:58;7.90;99.90
9157;DHT22;4613;48.392;9.998;2022-11-15T00:14:07;7.90;99.90
9157;DHT22;4613;48.392;9.998;2022-11-15T00:17:15;8.00;99.90
9157;DHT22;4613;48.392;9.998;2022-11-15T00:20:23;8.00;99.90
9157;DHT22;4613;48.392;9.998;2022-11-15T00:23:30;8.00;99.90
9157;DHT22;4613;48.392;9.998;2022-11-15T00:26:38;7.80;99.90
9157;DHT22;4613;48.392;9.998;2022-11-15T00:29:48;8.00;99.90
9157;DHT22;4613;48.392;9.998;2022-11-15T00:33:04;8.10;99.90
9157;DHT22;4613;48.392;9.998;2022-11-15T00:36:12;8.10;99.90
9157;DHT22;4613;48.392;9.998;2022-11-15T00:39:20;8.00;99.90
9157;DHT22;4613;48.392;9.998;2022-11-15T00:42:28;7.60;99.90
9157;DHT22;4613;48.392;9.998;2022-11-15T00:45:36;7.40;99.90
9157;DHT22;4613;48.392;9.998;2022-11-15T00:48:44;7.40;99.90
9157;DHT22;4613;48.392;9.998;2022-11-15T00:51:52;7.40;99.90
9157;DHT22;4613;48.392;9.998;2022-11-15T00:55:00;7.50;99.90
9157;DHT22;4613;48.392;9.998;2022-11-15T00:58:08;7.40;99.90
9157;DHT22;4613;48.392;9.998;2022-11-15T01:01:16;7.40;99.90
9157;DHT22;4613;48.392;9.998;2022-11-15T01:04:24;7.60;99.90
9157;DHT22;4613;48.392;9.998;2022-11-15T01:07:32;7.60;99.90
9157;DHT22;4613;48.392;9.998;2022-11-15T01:10:41;7.60;99.90
9157;DHT22;4613;48.392;9.998;2022-11-15T01:13:52;7.80;99.90
9157;DHT22;4613;48.392;9.998;2022-11-15T01:17:02;7.60;99.90
9157;DHT22;4613;48.392;9.998;2022-11-15T01:20:10;7.60;99.90
9157;DHT22;4613;48.392;9.998;2022-11-15T01:23:18;7.60;99.90
9157;DHT22;4613;48.392;9.998;2022-11-15T01:26:27;7.60;99.90
9157;DHT22;4613;48.392;9.998;2022-11-15T01:29:36;7.60;99.90
9157;DHT22;4613;48.392;9.998;2022-11-15T01:32:43;7.50;99.90
9157;DHT22;4613;48.392;9.998;2022-11-15T01:35:51;7.60;99.90
9157;DHT22;4613;48.392;9.998;2022-11-15T01:38:59;7.60;99.90
9157;DHT22;4613;48.392;9.998;2022-11-15T01:42:12;7.50;99.90
9157;DHT22;4613;48.392;9.998;2022-11-15T01:45:21;7.40;99.90
9157;DHT22;4613;48.392;9.998;2022-11-15T01:48:34;7.50;99.90
9157;DHT22;4613;48.392;9.998;2022-11-15T01:51:42;7.40;99.90
9157;DHT22;4613;48.392;9.998;2022-11-15T01:54:55;7.50;99.90
9157;DHT22;4613;48.392;9.998;2022-11-15T01:58:05;7.50;99.90
9157;DHT22;4613;48.392;9.998;2022-11-15T02:01:14;7.30;99.90
9157;DHT22;4613;48.392;9.998;2022-11-15T02:04:32;7.30;99.90
9157;DHT22;4613;48.392;9.998;2022-11-15T02:07:43;7.40;99.90
9157;DHT22;4613;48.392;9.998;2022-11-15T02:10:52;7.40;99.90
9157;DHT22;4613;48.392;9.998;2022-11-15T02:14:01;7.30;99.90
9157;DHT22;4613;48.392;9.998;2022-11-15T02:28:45;7.60;99.90
9157;DHT22;4613;48.392;9.998;2022-11-15T02:34:50;7.30;99.90
9157;DHT22;4613;48.392;9.998;2022-11-15T02:38:35;7.20;99.90
9157;DHT22;4613;48.392;9.998;2022-11-15T02:45:06;7.00;99.90
9157;DHT22;4613;48.392;9.998;2022-11-15T02:48:16;7.20;99.90
9157;DHT22;4613;48.392;9.998;2022-11-15T02:51:25;7.20;99.90
9157;DHT22;4613;48.392;9.998;2022-11-15T02:54:34;7.20;99.90
9157;DHT22;4613;48.392;9.998;2022-11-15T02:57:52;7.40;99.90
9157;DHT22;4613;48.392;9.998;2022-11-15T03:04:37;7.20;99.90
9157;DHT22;4613;48.392;9.998;2022-11-15T03:07:57;7.10;99.90
9157;DHT22;4613;48.392;9.998;2022-11-15T03:11:13;7.10;99.90
9157;DHT22;4613;48.392;9.998;2022-11-15T03:14:43;7.10;99.90
9157;DHT22;4613;48.392;9.998;2022-11-15T03:18:04;7.20;99.90
9157;DHT22;4613;48.392;9.998;2022-11-15T03:21:16;7.20;99.90
9157;DHT22;4613;48.392;9.998;2022-11-15T03:24:27;7.00;99.90
9157;DHT22;4613;48.392;9.998;2022-11-15T03:27:40;6.90;99.90
9157;DHT22;4613;48.392;9.998;2022-11-15T03:30:49;6.80;99.90
9157;DHT22;4613;48.392;9.998;2022-11-15T03:33:59;6.80;99.90
9157;DHT22;4613;48.392;9.998;2022-11-15T03:37:10;6.60;99.90
9157;DHT22;4613;48.392;9.998;2022-11-15T03:40:27;6.80;99.90
9157;DHT22;4613;48.392;9.998;2022-11-15T03:43:56;6.80;99.90
9157;DHT22;4613;48.392;9.998;2022-11-15T03:47:29;6.70;99.90
9157;DHT22;4613;48.392;9.998;2022-11-15T03:50:39;6.80;99.90
9157;DHT22;4613;48.392;9.998;2022-11-15T03:53:48;6.90;99.90
9157;DHT22;4613;48.392;9.998;2022-11-15T03:56:56;7.10;99.90
9157;DHT22;4613;48.392;9.998;2022-11-15T04:00:05;7.00;99.90
9157;DHT22;4613;48.392;9.998;2022-11-15T04:03:13;7.00;99.90
9157;DHT22;4613;48.392;9.998;2022-11-15T04:06:21;6.90;99.90
9157;DHT22;4613;48.392;9.998;2022-11-15T04:09:29;6.80;99.90
9157;DHT22;4613;48.392;9.998;2022-11-15T04:12:40;6.70;99.90
9157;DHT22;4613;48.392;9.998;2022-11-15T04:15:51;6.90;99.90
9157;DHT22;4613;48.392;9.998;2022-11-15T04:18:59;6.90;99.90
9157;DHT22;4613;48.392;9.998;2022-11-15T04:22:26;6.90;99.90
9157;DHT22;4613;48.392;9.998;2022-11-15T04:25:54;6.90;99.90
9157;DHT22;4613;48.392;9.998;2022-11-15T04:29:02;7.00;99.90
9157;DHT22;4613;48.392;9.998;2022-11-15T04:32:29;7.10;99.90
9157;DHT22;4613;48.392;9.998;2022-11-15T04:35:38;7.10;99.90
9157;DHT22;4613;48.392;9.998;2022-11-15T04:38:46;7.00;99.90
9157;DHT22;4613;48.392;9.998;2022-11-15T04:41:54;7.00;99.90
9157;DHT22;4613;48.392;9.998;2022-11-15T04:45:02;6.90;99.90
9157;DHT22;4613;48.392;9.998;2022-11-15T04:48:11;6.90;99.90
9157;DHT22;4613;48.392;9.998;2022-11-15T04:51:19;7.10;99.90
9157;DHT22;4613;48.392;9.998;2022-11-15T04:54:28;7.10;99.90
9157;DHT22;4613;48.392;9.998;2022-11-15T04:57:37;7.00;99.90
9157;DHT22;4613;48.392;9.998;2022-11-15T05:00:46;7.00;99.90
9157;DHT22;4613;48.392;9.998;2022-11-15T05:03:54;6.90;99.90
9157;DHT22;4613;48.392;9.998;2022-11-15T05:07:21;7.00;99.90
9157;DHT22;4613;48.392;9.998;2022-11-15T05:10:29;6.80;99.90
9157;DHT22;4613;48.392;9.998;2022-11-15T05:13:37;6.70;99.90
9157;DHT22;4613;48.392;9.998;2022-11-15T05:16:45;6.60;99.90
9157;DHT22;4613;48.392;9.998;2022-11-15T05:19:53;6.60;99.90
9157;DHT22;4613;48.392;9.998;2022-11-15T05:23:02;6.80;99.90
9157;DHT22;4613;48.392;9.998;2022-11-15T05:26:11;7.00;99.90
9157;DHT22;4613;48.392;9.998;2022-11-15T05:29:19;7.00;99.90
9157;DHT22;4613;48.392;9.998;2022-11-15T05:32:29;7.10;99.90
9157;DHT22;4613;48.392;9.998;2022-11-15T05:35:43;6.90;99.90
9157;DHT22;4613;48.392;9.998;2022-11-15T05:38:54;6.70;99.90
9157;DHT22;4613;48.392;9.998;2022-11-15T05:42:07;6.70;99.90
9157;DHT22;4613;48.392;9.998;2022-11-15T05:45:17;6.80;99.90
9157;DHT22;4613;48.392;9.998;2022-11-15T05:48:26;6.60;99.90
9157;DHT22;4613;48.392;9.998;2022-11-15T05:51:34;6.50;99.90
9157;DHT22;4613;48.392;9.998;2022-11-15T05:54:43;6.60;99.90
9157;DHT22;4613;48.392;9.998;2022-11-15T05:57:52;6.60;99.90
9157;DHT22;4613;48.392;9.998;2022-11-15T06:01:00;6.70;99.90
9157;DHT22;4613;48.392;9.998;2022-11-15T06:04:09;6.70;99.90
9157;DHT22;4613;48.392;9.998;2022-11-15T06:07:18;6.50;99.90
9157;DHT22;4613;48.392;9.998;2022-11-15T06:10:26;6.60;99.90
9157;DHT22;4613;48.392;9.998;2022-11-15T06:13:34;6.70;99.90
9157;DHT22;4613;48.392;9.998;2022-11-15T06:16:43;6.30;99.90
9157;DHT22;4613;48.392;9.998;2022-11-15T06:19:52;6.10;99.90
9157;DHT22;4613;48.392;9.998;2022-11-15T06:23:02;6.00;99.90
9157;DHT22;4613;48.392;9.998;2022-11-15T06:26:10;6.00;99.90
9157;DHT22;4613;48.392;9.998;2022-11-15T06:29:18;6.20;99.90
9157;DHT22;4613;48.392;9.998;2022-11-15T06:32:26;6.30;99.90
9157;DHT22;4613;48.392;9.998;2022-11-15T06:35:35;6.40;99.90
9157;DHT22;4613;48.392;9.998;2022-11-15T06:38:44;6.50;99.90
9157;DHT22;4613;48.392;9.998;2022-11-15T06:41:52;6.60;99.90
9157;DHT22;4613;48.392;9.998;2022-11-15T06:45:00;6.20;99.90
9157;DHT22;4613;48.392;9.998;2022-11-15T06:48:09;6.10;99.90
9157;DHT22;4613;48.392;9.998;2022-11-15T06:51:17;6.00;99.90
9157;DHT22;4613;48.392;9.998;2022-11-15T06:54:26;6.20;99.90
9157;DHT22;4613;48.392;9.998;2022-11-15T06:57:42;6.50;99.90
9157;DHT22;4613;48.392;9.998;2022-11-15T07:00:57;6.50;99.90
9157;DHT22;4613;48.392;9.998;2022-11-15T07:04:06;6.40;99.90
9157;DHT22;4613;48.392;9.998;2022-11-15T07:07:15;6.50;99.90
9157;DHT22;4613;48.392;9.998;2022-11-15T07:10:24;6.80;99.90
9157;DHT22;4613;48.392;9.998;2022-11-15T07:13:33;6.60;99.90
9157;DHT22;4613;48.392;9.998;2022-11-15T07:16:43;6.40;99.90
9157;DHT22;4613;48.392;9.998;2022-11-15T07:19:51;6.20;99.90
9157;DHT22;4613;48.392;9.998;2022-11-15T07:23:01;6.40;99.90
9157;DHT22;4613;48.392;9.998;2022-11-15T07:26:10;6.60;99.90
9157;DHT22;4613;48.392;9.998;2022-11-15T07:29:18;6.70;99.90
9157;DHT22;4613;48.392;9.998;2022-11-15T07:32:26;6.70;99.90
9157;DHT22;4613;48.392;9.998;2022-11-15T07:35:34;6.50;99.90
9157;DHT22;4613;48.392;9.998;2022-11-15T07:38:42;6.60;99.90
9157;DHT22;4613;48.392;9.998;2022-11-15T07:41:51;7.40;99.90
9157;DHT22;4613;48.392;9.998;2022-11-15T07:45:20;9.00;99.90
9157;DHT22;4613;48.392;9.998;2022-11-15T07:48:28;10.30;99.90
9157;DHT22;4613;48.392;9.998;2022-11-15T07:51:36;9.50;99.90
9157;DHT22;4613;48.392;9.998;2022-11-15T07:54:44;8.80;99.90
9157;DHT22;4613;48.392;9.998;2022-11-15T07:57:51;8.20;99.90
9157;DHT22;4613;48.392;9.998;2022-11-15T08:01:08;8.70;99.90
9157;DHT22;4613;48.392;9.998;2022-11-15T08:04:16;8.50;99.90
9157;DHT22;4613;48.392;9.998;2022-11-15T08:07:24;8.20;99.90
9157;DHT22;4613;48.392;9.998;2022-11-15T08:10:33;8.60;99.90
9157;DHT22;4613;48.392;9.998;2022-11-15T08:13:42;9.20;99.90
9157;DHT22;4613;48.392;9.998;2022-11-15T08:16:50;9.10;99.90
9157;DHT22;4613;48.392;9.998;2022-11-15T08:19:57;8.90;99.90
9157;DHT22;4613;48.392;9.998;2022-11-15T08:23:06;8.50;99.90
9157;DHT22;4613;48.392;9.998;2022-11-15T08:26:14;8.10;99.90
9157;DHT22;4613;48.392;9.998;2022-11-15T08:29:23;8.30;99.90
9157;DHT22;4613;48.392;9.998;2022-11-15T08:32:32;7.50;99.90
9157;DHT22;4613;48.392;9.998;2022-11-15T08:35:43;7.90;99.90
9157;DHT22;4613;48.392;9.998;2022-11-15T08:38:57;8.30;99.90
9157;DHT22;4613;48.392;9.998;2022-11-15T08:42:06;8.10;99.90
9157;DHT22;4613;48.392;9.998;2022-11-15T08:45:14;7.80;99.90
9157;DHT22;4613;48.392;9.998;2022-11-15T08:48:26;7.50;99.90
9157;DHT22;4613;48.392;9.998;2022-11-15T08:51:35;7.20;99.90
9157;DHT22;4613;48.392;9.998;2022-11-15T08:54:47;7.60;99.90
9157;DHT22;4613;48.392;9.998;2022-11-15T08:57:57;7.40;99.90
9157;DHT22;4613;48.392;9.998;2022-11-15T09:01:06;7.10;99.90
9157;DHT22;4613;48.392;9.998;2022-11-15T09:04:17;7.20;99.90
9157;DHT22;4613;48.392;9.998;2022-11-15T09:07:29;7.40;99.90
9157;DHT22;4613;48.392;9.998;2022-11-15T09:10:38;7.50;99.90
9157;DHT22;4613;48.392;9.998;2022-11-15T09:13:50;7.70;99.90
9157;DHT22;4613;48.392;9.998;2022-11-15T09:16:58;8.10;99.90
9157;DHT22;4613;48.392;9.998;2022-11-15T09:20:07;8.20;99.90
9157;DHT22;4613;48.392;9.998;2022-11-15T09:23:16;9.20;99.90
9157;DHT22;4613;48.392;9.998;2022-11-15T09:26:25;9.30;99.90
9157;DHT22;4613;48.392;9.998;2022-11-15T09:29:33;8.70;99.90
9157;DHT22;4613;48.392;9.998;2022-11-15T09:32:41;8.30;99.90
9157;DHT22;4613;48.392;9.998;2022-11-15T09:35:49;8.70;99.90
9157;DHT22;4613;48.392;9.998;2022-11-15T09:38:58;9.50;99.90
9157;DHT22;4613;48.392;9.998;2022-11-15T09:46:10;10.90;99.90
9157;DHT22;4613;48.392;9.998;2022-11-15T09:49:39;11.90;99.90
9157;DHT22;4613;48.392;9.998;2022-11-15T09:52:42;12.20;99.90
9157;DHT22;4613;48.392;9.998;2022-11-15T10:05:03;13.50;99.90
9157;DHT22;4613;48.392;9.998;2022-11-15T10:08:00;13.90;99.90
9157;DHT22;4613;48.392;9.998;2022-11-15T10:11:01;12.50;99.90
9157;DHT22;4613;48.392;9.998;2022-11-15T10:13:53;13.20;99.90
9157;DHT22;4613;48.392;9.998;2022-11-15T10:16:57;13.50;99.90
9157;DHT22;4613;48.392;9.998;2022-11-15T10:20:10;14.20;99.90
9157;DHT22;4613;48.392;9.998;2022-11-15T10:23:02;15.30;99.90
9157;DHT22;4613;48.392;9.998;2022-11-15T10:25:57;15.10;99.90
9157;DHT22;4613;48.392;9.998;2022-11-15T10:28:46;16.40;99.90
9157;DHT22;4613;48.392;9.998;2022-11-15T10:31:39;17.40;99.90
9157;DHT22;4613;48.392;9.998;2022-11-15T10:34:39;18.20;99.90
9157;DHT22;4613;48.392;9.998;2022-11-15T10:37:30;17.70;99.90
9157;DHT22;4613;48.392;9.998;2022-11-15T10:40:24;17.40;99.90
9157;DHT22;4613;48.392;9.998;2022-11-15T10:43:16;16.30;99.90
9157;DHT22;4613;48.392;9.998;2022-11-15T10:46:23;15.50;99.90
9157;DHT22;4613;48.392;9.998;2022-11-15T10:49:24;14.90;99.90
9157;DHT22;4613;48.392;9.998;2022-11-15T10:52:20;14.60;99.90
9157;DHT22;4613;48.392;9.998;2022-11-15T11:01:22;14.10;99.90
9157;DHT22;4613;48.392;9.998;2022-11-15T11:04:11;13.90;99.90
9157;DHT22;4613;48.392;9.998;2022-11-15T11:07:02;14.70;99.90
9157;DHT22;4613;48.392;9.998;2022-11-15T11:10:04;15.50;99.90
9157;DHT22;4613;48.392;9.998;2022-11-15T11:12:54;15.20;99.90
9157;DHT22;4613;48.392;9.998;2022-11-15T11:15:47;14.30;99.90
9157;DHT22;4613;48.392;9.998;2022-11-15T11:18:57;14.90;99.90
9157;DHT22;4613;48.392;9.998;2022-11-15T11:22:11;14.70;99.90
9157;DHT22;4613;48.392;9.998;2022-11-15T11:25:19;14.50;99.90
9157;DHT22;4613;48.392;9.998;2022-11-15T11:31:20;15.50;99.90
9157;DHT22;4613;48.392;9.998;2022-11-15T11:34:36;14.60;99.90
9157;DHT22;4613;48.392;9.998;2022-11-15T11:37:52;13.80;99.90
9157;DHT22;4613;48.392;9.998;2022-11-15T11:41:00;13.60;99.90
9157;DHT22;4613;48.392;9.998;2022-11-15T11:46:59;14.60;99.90
9157;DHT22;4613;48.392;9.998;2022-11-15T11:50:15;13.70;99.90
9157;DHT22;4613;48.392;9.998;2022-11-15T11:53:12;14.90;99.90
9157;DHT22;4613;48.392;9.998;2022-11-15T11:56:31;15.50;99.90
9157;DHT22;4613;48.392;9.998;2022-11-15T11:59:31;15.30;99.90
9157;DHT22;4613;48.392;9.998;2022-11-15T12:02:43;15.80;99.90
9157;DHT22;4613;48.392;9.998;2022-11-15T12:05:41;15.80;99.90
9157;DHT22;4613;48.392;9.998;2022-11-15T12:08:39;15.60;99.90
9157;DHT22;4613;48.392;9.998;2022-11-15T12:11:35;15.80;99.90
9157;DHT22;4613;48.392;9.998;2022-11-15T12:17:34;14.80;99.90
9157;DHT22;4613;48.392;9.998;2022-11-15T12:20:26;14.50;99.90
9157;DHT22;4613;48.392;9.998;2022-11-15T12:23:21;13.90;99.90
9157;DHT22;4613;48.392;9.998;2022-11-15T12:26:24;14.90;99.90
9157;DHT22;4613;48.392;9.998;2022-11-15T12:29:26;14.70;99.90
9157;DHT22;4613;48.392;9.998;2022-11-15T12:35:38;14.10;99.90
9157;DHT22;4613;48.392;9.998;2022-11-15T12:47:37;13.00;99.90
9157;DHT22;4613;48.392;9.998;2022-11-15T12:53:44;13.20;99.90
9157;DHT22;4613;48.392;9.998;2022-11-15T12:56:33;13.10;99.90
9157;DHT22;4613;48.392;9.998;2022-11-15T12:59:56;12.90;99.90
9157;DHT22;4613;48.392;9.998;2022-11-15T13:02:47;12.70;99.90
9157;DHT22;4613;48.392;9.998;2022-11-15T13:05:57;12.60;99.90
9157;DHT22;4613;48.392;9.998;2022-11-15T13:08:49;12.30;99.90
9157;DHT22;4613;48.392;9.998;2022-11-15T13:11:43;12.30;99.90
9157;DHT22;4613;48.392;9.998;2022-11-15T13:14:55;12.20;99.90
9157;DHT22;4613;48.392;9.998;2022-11-15T13:17:46;12.30;99.90
9157;DHT22;4613;48.392;9.998;2022-11-15T13:20:36;12.40;99.90
9157;DHT22;4613;48.392;9.998;2022-11-15T13:23:25;12.30;99.90
9157;DHT22;4613;48.392;9.998;2022-11-15T13:26:15;12.10;99.90
9157;DHT22;4613;48.392;9.998;2022-11-15T13:29:18;12.20;99.90
9157;DHT22;4613;48.392;9.998;2022-11-15T13:32:15;12.10;99.90
9157;DHT22;4613;48.392;9.998;2022-11-15T13:35:07;11.70;99.90
9157;DHT22;4613;48.392;9.998;2022-11-15T13:37:56;11.60;99.90
9157;DHT22;4613;48.392;9.998;2022-11-15T13:40:47;11.90;99.90
9157;DHT22;4613;48.392;9.998;2022-11-15T13:43:37;11.60;99.90
9157;DHT22;4613;48.392;9.998;2022-11-15T13:46:31;11.60;99.90
9157;DHT22;4613;48.392;9.998;2022-11-15T13:49:29;11.40;99.90
9157;DHT22;4613;48.392;9.998;2022-11-15T13:52:20;11.60;99.90
9157;DHT22;4613;48.392;9.998;2022-11-15T13:55:16;11.40;99.90
9157;DHT22;4613;48.392;9.998;2022-11-15T13:58:09;11.40;99.90
9157;DHT22;4613;48.392;9.998;2022-11-15T14:01:02;11.40;99.90
9157;DHT22;4613;48.392;9.998;2022-11-15T14:03:56;11.60;99.90
9157;DHT22;4613;48.392;9.998;2022-11-15T14:06:53;11.90;99.90
9157;DHT22;4613;48.392;9.998;2022-11-15T14:09:46;12.00;99.90
9157;DHT22;4613;48.392;9.998;2022-11-15T14:12:39;11.80;99.90
9157;DHT22;4613;48.392;9.998;2022-11-15T14:18:44;11.70;99.90
9157;DHT22;4613;48.392;9.998;2022-11-15T14:21:34;11.90;99.90
9157;DHT22;4613;48.392;9.998;2022-11-15T14:24:30;11.80;99.90
9157;DHT22;4613;48.392;9.998;2022-11-15T14:27:26;11.80;99.90
9157;DHT22;4613;48.392;9.998;2022-11-15T14:30:17;11.70;99.90
9157;DHT22;4613;48.392;9.998;2022-11-15T14:36:20;11.70;99.90
9157;DHT22;4613;48.392;9.998;2022-11-15T14:39:10;11.50;99.90
9157;DHT22;4613;48.392;9.998;2022-11-15T14:42:00;11.50;99.90
9157;DHT22;4613;48.392;9.998;2022-11-15T14:44:50;11.50;99.90
9157;DHT22;4613;48.392;9.998;2022-11-15T14:47:40;11.50;99.90
9157;DHT22;4613;48.392;9.998;2022-11-15T14:50:30;11.40;99.90
9157;DHT22;4613;48.392;9.998;2022-11-15T14:53:21;11.40;99.90
9157;DHT22;4613;48.392;9.998;2022-11-15T14:56:12;11.50;99.90
9157;DHT22;4613;48.392;9.998;2022-11-15T14:59:02;11.40;99.90
9157;DHT22;4613;48.392;9.998;2022-11-15T15:01:51;11.40;99.90
9157;DHT22;4613;48.392;9.998;2022-11-15T15:04:41;11.60;99.90
9157;DHT22;4613;48.392;9.998;2022-11-15T15:07:30;11.50;99.90
9157;DHT22;4613;48.392;9.998;2022-11-15T15:10:21;11.50;99.90
9157;DHT22;4613;48.392;9.998;2022-11-15T15:13:22;11.40;99.90
9157;DHT22;4613;48.392;9.998;2022-11-15T15:16:12;11.40;99.90
9157;DHT22;4613;48.392;9.998;2022-11-15T15:19:01;11.40;99.90
9157;DHT22;4613;48.392;9.998;2022-11-15T15:21:51;11.50;99.90
9157;DHT22;4613;48.392;9.998;2022-11-15T15:24:41;11.50;99.90
9157;DHT22;4613;48.392;9.998;2022-11-15T15:27:32;11.70;99.90
9157;DHT22;4613;48.392;9.998;2022-11-15T15:30:22;11.70;99.90
9157;DHT22;4613;48.392;9.998;2022-11-15T15:33:12;11.60;99.90
9157;DHT22;4613;48.392;9.998;2022-11-15T15:36:02;11.70;99.90
9157;DHT22;4613;48.392;9.998;2022-11-15T15:38:51;11.80;99.90
9157;DHT22;4613;48.392;9.998;2022-11-15T15:41:41;11.80;99.90
9157;DHT22;4613;48.392;9.998;2022-11-15T15:44:30;11.80;99.90
9157;DHT22;4613;48.392;9.998;2022-11-15T15:47:22;11.90;99.90
9157;DHT22;4613;48.392;9.998;2022-11-15T15:50:24;11.80;99.90
9157;DHT22;4613;48.392;9.998;2022-11-15T15:53:14;11.70;99.90
9157;DHT22;4613;48.392;9.998;2022-11-15T15:56:04;11.60;99.90
9157;DHT22;4613;48.392;9.998;2022-11-15T15:58:53;11.60;99.90
9157;DHT22;4613;48.392;9.998;2022-11-15T16:01:44;11.60;99.90
9157;DHT22;4613;48.392;9.998;2022-11-15T16:04:34;11.60;99.90
9157;DHT22;4613;48.392;9.998;2022-11-15T16:07:23;11.60;99.90
9157;DHT22;4613;48.392;9.998;2022-11-15T16:13:14;11.50;99.90
9157;DHT22;4613;48.392;9.998;2022-11-15T16:16:09;11.50;99.90
9157;DHT22;4613;48.392;9.998;2022-11-15T16:19:02;11.60;99.90
9157;DHT22;4613;48.392;9.998;2022-11-15T16:21:51;11.40;99.90
9157;DHT22;4613;48.392;9.998;2022-11-15T16:24:41;11.40;99.90
9157;DHT22;4613;48.392;9.998;2022-11-15T16:27:30;11.40;99.90
9157;DHT22;4613;48.392;9.998;2022-11-15T16:30:23;11.50;99.90
9157;DHT22;4613;48.392;9.998;2022-11-15T16:33:12;11.70;99.90
9157;DHT22;4613;48.392;9.998;2022-11-15T16:36:03;12.10;99.90
9157;DHT22;4613;48.392;9.998;2022-11-15T16:38:53;12.10;99.90
9157;DHT22;4613;48.392;9.998;2022-11-15T16:41:42;12.10;99.90
9157;DHT22;4613;48.392;9.998;2022-11-15T16:44:35;12.10;99.90
9157;DHT22;4613;48.392;9.998;2022-11-15T16:47:25;12.00;99.90
9157;DHT22;4613;48.392;9.998;2022-11-15T16:50:24;11.60;99.90
9157;DHT22;4613;48.392;9.998;2022-11-15T16:53:13;11.40;99.90
9157;DHT22;4613;48.392;9.998;2022-11-15T16:56:03;11.50;99.90
9157;DHT22;4613;48.392;9.998;2022-11-15T16:58:57;11.40;99.90
9157;DHT22;4613;48.392;9.998;2022-11-15T17:01:47;11.30;99.90
9157;DHT22;4613;48.392;9.998;2022-11-15T17:05:04;11.20;99.90
9157;DHT22;4613;48.392;9.998;2022-11-15T17:07:54;11.20;99.90
9157;DHT22;4613;48.392;9.998;2022-11-15T17:10:44;11.30;99.90
9157;DHT22;4613;48.392;9.998;2022-11-15T17:13:33;11.30;99.90
9157;DHT22;4613;48.392;9.998;2022-11-15T17:16:23;11.30;99.90
9157;DHT22;4613;48.392;9.998;2022-11-15T17:19:14;11.10;99.90
9157;DHT22;4613;48.392;9.998;2022-11-15T17:22:03;11.00;99.90
9157;DHT22;4613;48.392;9.998;2022-11-15T17:24:52;11.00;99.90
9157;DHT22;4613;48.392;9.998;2022-11-15T17:27:42;11.20;99.90
9157;DHT22;4613;48.392;9.998;2022-11-15T17:30:31;11.10;99.90
9157;DHT22;4613;48.392;9.998;2022-11-15T17:33:21;11.20;99.90
9157;DHT22;4613;48.392;9.998;2022-11-15T17:36:11;11.20;99.90
9157;DHT22;4613;48.392;9.998;2022-11-15T17:39:02;11.20;99.90
9157;DHT22;4613;48.392;9.998;2022-11-15T17:41:52;11.20;99.90
9157;DHT22;4613;48.392;9.998;2022-11-15T17:44:43;11.20;99.90
9157;DHT22;4613;48.392;9.998;2022-11-15T17:47:32;11.10;99.90
9157;DHT22;4613;48.392;9.998;2022-11-15T17:50:21;11.20;99.90
9157;DHT22;4613;48.392;9.998;2022-11-15T17:53:11;11.20;99.90
9157;DHT22;4613;48.392;9.998;2022-11-15T17:56:05;11.10;99.90
9157;DHT22;4613;48.392;9.998;2022-11-15T17:58:57;11.10;99.90
9157;DHT22;4613;48.392;9.998;2022-11-15T18:01:47;11.20;99.90
9157;DHT22;4613;48.392;9.998;2022-11-15T18:04:39;11.20;99.90
9157;DHT22;4613;48.392;9.998;2022-11-15T18:07:29;11.10;99.90
9157;DHT22;4613;48.392;9.998;2022-11-15T18:10:19;11.10;99.90
9157;DHT22;4613;48.392;9.998;2022-11-15T18:13:08;11.20;99.90
9157;DHT22;4613;48.392;9.998;2022-11-15T18:15:58;11.10;99.90
9157;DHT22;4613;48.392;9.998;2022-11-15T18:18:51;11.10;99.90
9157;DHT22;4613;48.392;9.998;2022-11-15T18:21:44;11.10;99.90
9157;DHT22;4613;48.392;9.998;2022-11-15T18:24:45;11.00;99.90
9157;DHT22;4613;48.392;9.998;2022-11-15T18:27:35;11.00;99.90
9157;DHT22;4613;48.392;9.998;2022-11-15T18:30:24;11.10;99.90
9157;DHT22;4613;48.392;9.998;2022-11-15T18:33:14;11.10;99.90
9157;DHT22;4613;48.392;9.998;2022-11-15T18:36:06;11.00;99.90
9157;DHT22;4613;48.392;9.998;2022-11-15T18:39:00;11.00;99.90
9157;DHT22;4613;48.392;9.998;2022-11-15T18:41:52;10.90;99.90
9157;DHT22;4613;48.392;9.998;2022-11-15T18:44:42;10.80;99.90
9157;DHT22;4613;48.392;9.998;2022-11-15T18:47:31;10.80;99.90
9157;DHT22;4613;48.392;9.998;2022-11-15T18:50:21;10.90;99.90
9157;DHT22;4613;48.392;9.998;2022-11-15T18:53:11;10.90;99.90
9157;DHT22;4613;48.392;9.998;2022-11-15T18:56:10;10.90;99.90
9157;DHT22;4613;48.392;9.998;2022-11-15T18:59:01;10.80;99.90
9157;DHT22;4613;48.392;9.998;2022-11-15T19:01:53;10.70;99.90
9157;DHT22;4613;48.392;9.998;2022-11-15T19:04:44;10.90;99.90
9157;DHT22;4613;48.392;9.998;2022-11-15T19:07:33;10.80;99.90
9157;DHT22;4613;48.392;9.998;2022-11-15T19:10:24;10.80;99.90
9157;DHT22;4613;48.392;9.998;2022-11-15T19:13:14;10.70;99.90
9157;DHT22;4613;48.392;9.998;2022-11-15T19:16:05;10.70;99.90
9157;DHT22;4613;48.392;9.998;2022-11-15T19:18:58;10.60;99.90
9157;DHT22;4613;48.392;9.998;2022-11-15T19:21:48;10.60;99.90
9157;DHT22;4613;48.392;9.998;2022-11-15T19:24:39;10.70;99.90
9157;DHT22;4613;48.392;9.998;2022-11-15T19:27:28;10.70;99.90
9157;DHT22;4613;48.392;9.998;2022-11-15T19:30:18;10.60;99.90
9157;DHT22;4613;48.392;9.998;2022-11-15T19:33:07;10.50;99.90
9157;DHT22;4613;48.392;9.998;2022-11-15T19:36:06;10.60;99.90
9157;DHT22;4613;48.392;9.998;2022-11-15T19:38:57;10.60;99.90
9157;DHT22;4613;48.392;9.998;2022-11-15T19:41:46;10.60;99.90
9157;DHT22;4613;48.392;9.998;2022-11-15T19:44:36;10.40;99.90
9157;DHT22;4613;48.392;9.998;2022-11-15T19:47:26;10.40;99.90
9157;DHT22;4613;48.392;9.998;2022-11-15T19:50:16;10.50;99.90
9157;DHT22;4613;48.392;9.998;2022-11-15T19:53:07;10.60;99.90
9157;DHT22;4613;48.392;9.998;2022-11-15T19:55:59;10.60;99.90
9157;DHT22;4613;48.392;9.998;2022-11-15T19:58:50;10.50;99.90
9157;DHT22;4613;48.392;9.998;2022-11-15T20:01:40;10.60;99.90
9157;DHT22;4613;48.392;9.998;2022-11-15T20:04:30;10.60;99.90
9157;DHT22;4613;48.392;9.998;2022-11-15T20:07:20;10.50;99.90
9157;DHT22;4613;48.392;9.998;2022-11-15T20:10:10;10.40;99.90
9157;DHT22;4613;48.392;9.998;2022-11-15T20:12:59;10.30;99.90
9157;DHT22;4613;48.392;9.998;2022-11-15T20:15:49;10.30;99.90
9157;DHT22;4613;48.392;9.998;2022-11-15T20:18:38;10.30;99.90
9157;DHT22;4613;48.392;9.998;2022-11-15T20:21:27;10.30;99.90
9157;DHT22;4613;48.392;9.998;2022-11-15T20:24:17;10.30;99.90
9157;DHT22;4613;48.392;9.998;2022-11-15T20:27:09;10.30;99.90
9157;DHT22;4613;48.392;9.998;2022-11-15T20:29:58;10.20;99.90
9157;DHT22;4613;48.392;9.998;2022-11-15T20:32:48;10.20;99.90
9157;DHT22;4613;48.392;9.998;2022-11-15T20:35:37;10.20;99.90
9157;DHT22;4613;48.392;9.998;2022-11-15T20:38:31;10.10;99.90
9157;DHT22;4613;48.392;9.998;2022-11-15T20:41:20;10.10;99.90
9157;DHT22;4613;48.392;9.998;2022-11-15T20:44:10;10.20;99.90
9157;DHT22;4613;48.392;9.998;2022-11-15T20:46:59;10.30;99.90
9157;DHT22;4613;48.392;9.998;2022-11-15T20:49:50;10.30;99.90
9157;DHT22;4613;48.392;9.998;2022-11-15T20:52:40;10.20;99.90
9157;DHT22;4613;48.392;9.998;2022-11-15T20:55:29;10.10;99.90
9157;DHT22;4613;48.392;9.998;2022-11-15T20:58:18;10.10;99.90
9157;DHT22;4613;48.392;9.998;2022-11-15T21:01:11;10.10;99.90
9157;DHT22;4613;48.392;9.998;2022-11-15T21:04:02;10.10;99.90
9157;DHT22;4613;48.392;9.998;2022-11-15T21:06:51;10.20;99.90